sensor_id;sensor_type;location;lat;lon;timestamp;temperature;humidity
27439;DHT22;14887;51.252;7.470;2023-03-21T00:02:01;7.10;1.00
27439;DHT22;14887;51.252;7.470;2023-03-21T00:04:27;7.10;1.00
27439;DHT22;14887;51.252;7.470;2023-03-21T00:06:52;7.10;1.00
27439;DHT22;14887;51.252;7.470;2023-03-21T00:09:18;7.10;1.00
27439;DHT22;14887;51.252;7.470;2023-03-21T00:11:44;7.10;1.00
27439;DHT22;14887;51.252;7.470;2023-03-21T00:14:10;7.10;1.00
27439;DHT22;14887;51.252;7.470;2023-03-21T00:16:39;7.10;1.00
27439;DHT22;14887;51.252;7.470;2023-03-21T00:19:04;7.10;1.00
27439;DHT22;14887;51.252;7.470;2023-03-21T00:21:34;7.10;1.00
27439;DHT22;14887;51.252;7.470;2023-03-21T00:24:03;7.10;1.00
27439;DHT22;14887;51.252;7.470;2023-03-21T00:26:29;7.20;1.00
27439;DHT22;14887;51.252;7.470;2023-03-21T00:28:56;7.20;1.00
27439;DHT22;14887;51.252;7.470;2023-03-21T00:31:21;7.20;1.00
27439;DHT22;14887;51.252;7.470;2023-03-21T00:33:47;7.20;1.00
27439;DHT22;14887;51.252;7.470;2023-03-21T00:36:13;7.20;1.00
27439;DHT22;14887;51.252;7.470;2023-03-21T00:38:38;7.20;1.00
27439;DHT22;14887;51.252;7.470;2023-03-21T00:41:06;7.20;1.00
27439;DHT22;14887;51.252;7.470;2023-03-21T00:43:32;7.20;1.00
27439;DHT22;14887;51.252;7.470;2023-03-21T00:45:58;7.20;1.00
27439;DHT22;14887;51.252;7.470;2023-03-21T00:48:27;7.20;1.00
27439;DHT22;14887;51.252;7.470;2023-03-21T00:50:53;7.20;1.00
27439;DHT22;14887;51.252;7.470;2023-03-21T00:53:20;7.20;1.00
27439;DHT22;14887;51.252;7.470;2023-03-21T00:55:46;7.20;1.00
27439;DHT22;14887;51.252;7.470;2023-03-21T00:58:11;7.20;1.00
27439;DHT22;14887;51.252;7.470;2023-03-21T01:00:37;7.20;1.00
27439;DHT22;14887;51.252;7.470;2023-03-21T01:03:05;7.20;1.00
27439;DHT22;14887;51.252;7.470;2023-03-21T01:05:36;7.20;1.00
27439;DHT22;14887;51.252;7.470;2023-03-21T01:08:21;7.10;1.00
27439;DHT22;14887;51.252;7.470;2023-03-21T01:10:48;7.20;1.00
27439;DHT22;14887;51.252;7.470;2023-03-21T01:13:16;7.10;1.00
27439;DHT22;14887;51.252;7.470;2023-03-21T01:15:44;7.20;1.00
27439;DHT22;14887;51.252;7.470;2023-03-21T01:18:11;7.10;1.00
27439;DHT22;14887;51.252;7.470;2023-03-21T01:20:39;7.10;3.10
27439;DHT22;14887;51.252;7.470;2023-03-21T01:23:06;7.00;9.60
27439;DHT22;14887;51.252;7.470;2023-03-21T01:25:31;7.10;10.20
27439;DHT22;14887;51.252;7.470;2023-03-21T01:27:57;7.00;8.00
27439;DHT22;14887;51.252;7.470;2023-03-21T01:30:23;7.00;10.50
27439;DHT22;14887;51.252;7.470;2023-03-21T01:32:49;7.00;7.70
27439;DHT22;14887;51.252;7.470;2023-03-21T01:35:14;7.00;17.00
27439;DHT22;14887;51.252;7.470;2023-03-21T01:37:40;7.00;14.80
27439;DHT22;14887;51.252;7.470;2023-03-21T01:40:06;7.00;15.30
27439;DHT22;14887;51.252;7.470;2023-03-21T01:42:37;7.00;1.00
27439;DHT22;14887;51.252;7.470;2023-03-21T01:45:57;7.00;1.00
27439;DHT22;14887;51.252;7.470;2023-03-21T01:47:50;7.00;1.00
27439;DHT22;14887;51.252;7.470;2023-03-21T01:50:17;7.00;1.00
27439;DHT22;14887;51.252;7.470;2023-03-21T01:52:47;7.10;1.00
27439;DHT22;14887;51.252;7.470;2023-03-21T01:55:15;7.10;1.00
27439;DHT22;14887;51.252;7.470;2023-03-21T01:57:50;7.10;1.00
27439;DHT22;14887;51.252;7.470;2023-03-21T02:00:19;7.10;1.00
27439;DHT22;14887;51.252;7.470;2023-03-21T02:02:45;7.10;1.00
27439;DHT22;14887;51.252;7.470;2023-03-21T02:05:32;7.10;1.00
27439;DHT22;14887;51.252;7.470;2023-03-21T02:08:02;7.10;1.00
27439;DHT22;14887;51.252;7.470;2023-03-21T02:10:30;7.10;1.00
27439;DHT22;14887;51.252;7.470;2023-03-21T02:13:03;7.10;1.00
27439;DHT22;14887;51.252;7.470;2023-03-21T02:15:35;7.10;1.00
27439;DHT22;14887;51.252;7.470;2023-03-21T02:18:31;7.20;1.00
27439;DHT22;14887;51.252;7.470;2023-03-21T02:23:51;7.10;1.00
27439;DHT22;14887;51.252;7.470;2023-03-21T02:29:16;7.00;1.00
27439;DHT22;14887;51.252;7.470;2023-03-21T02:34:56;7.00;1.00
27439;DHT22;14887;51.252;7.470;2023-03-21T02:37:37;7.00;1.00
27439;DHT22;14887;51.252;7.470;2023-03-21T02:48:04;7.00;1.00
27439;DHT22;14887;51.252;7.470;2023-03-21T02:50:31;7.00;1.00
27439;DHT22;14887;51.252;7.470;2023-03-21T02:53:00;7.00;1.00
27439;DHT22;14887;51.252;7.470;2023-03-21T02:55:29;7.00;1.00
27439;DHT22;14887;51.252;7.470;2023-03-21T02:57:57;7.00;1.00
27439;DHT22;14887;51.252;7.470;2023-03-21T03:00:30;7.00;1.00
27439;DHT22;14887;51.252;7.470;2023-03-21T03:02:57;7.00;1.00
27439;DHT22;14887;51.252;7.470;2023-03-21T03:05:26;7.00;1.00
27439;DHT22;14887;51.252;7.470;2023-03-21T03:08:34;7.00;1.00
27439;DHT22;14887;51.252;7.470;2023-03-21T03:11:23;7.00;1.00
27439;DHT22;14887;51.252;7.470;2023-03-21T03:19:21;6.90;1.00
27439;DHT22;14887;51.252;7.470;2023-03-21T03:21:57;6.90;4.10
27439;DHT22;14887;51.252;7.470;2023-03-21T03:24:30;6.80;11.40
27439;DHT22;14887;51.252;7.470;2023-03-21T03:26:59;6.70;27.80
27439;DHT22;14887;51.252;7.470;2023-03-21T03:29:29;6.60;32.20
27439;DHT22;14887;51.252;7.470;2023-03-21T03:31:59;6.40;39.30
27439;DHT22;14887;51.252;7.470;2023-03-21T03:34:34;6.40;45.60
27439;DHT22;14887;51.252;7.470;2023-03-21T03:37:04;6.40;48.80
27439;DHT22;14887;51.252;7.470;2023-03-21T03:39:40;6.40;51.60
27439;DHT22;14887;51.252;7.470;2023-03-21T03:42:23;6.50;52.20
27439;DHT22;14887;51.252;7.470;2023-03-21T03:44:50;6.50;55.00
27439;DHT22;14887;51.252;7.470;2023-03-21T03:47:23;6.60;56.00
27439;DHT22;14887;51.252;7.470;2023-03-21T03:52:54;6.60;52.20
27439;DHT22;14887;51.252;7.470;2023-03-21T03:55:22;6.50;53.40
27439;DHT22;14887;51.252;7.470;2023-03-21T03:57:52;6.40;57.00
27439;DHT22;14887;51.252;7.470;2023-03-21T04:00:18;6.30;56.50
27439;DHT22;14887;51.252;7.470;2023-03-21T04:02:45;6.30;55.20
27439;DHT22;14887;51.252;7.470;2023-03-21T04:05:11;6.30;54.80
27439;DHT22;14887;51.252;7.470;2023-03-21T04:07:37;6.40;53.80
27439;DHT22;14887;51.252;7.470;2023-03-21T04:10:03;6.40;54.70
27439;DHT22;14887;51.252;7.470;2023-03-21T04:12:29;6.40;55.40
27439;DHT22;14887;51.252;7.470;2023-03-21T04:14:55;6.50;55.00
27439;DHT22;14887;51.252;7.470;2023-03-21T04:17:20;6.50;51.00
27439;DHT22;14887;51.252;7.470;2023-03-21T04:19:46;6.50;46.00
27439;DHT22;14887;51.252;7.470;2023-03-21T04:22:12;6.50;37.00
27439;DHT22;14887;51.252;7.470;2023-03-21T04:24:38;6.50;31.00
27439;DHT22;14887;51.252;7.470;2023-03-21T04:27:04;6.60;26.50
27439;DHT22;14887;51.252;7.470;2023-03-21T04:29:31;6.60;20.50
27439;DHT22;14887;51.252;7.470;2023-03-21T04:31:56;6.50;17.20
27439;DHT22;14887;51.252;7.470;2023-03-21T04:34:23;6.60;14.30
27439;DHT22;14887;51.252;7.470;2023-03-21T04:36:52;6.60;3.60
27439;DHT22;14887;51.252;7.470;2023-03-21T04:39:19;6.60;5.20
27439;DHT22;14887;51.252;7.470;2023-03-21T04:41:45;6.50;12.60
27439;DHT22;14887;51.252;7.470;2023-03-21T04:44:12;6.50;16.90
27439;DHT22;14887;51.252;7.470;2023-03-21T04:46:39;6.50;26.90
27439;DHT22;14887;51.252;7.470;2023-03-21T04:49:05;6.50;21.20
27439;DHT22;14887;51.252;7.470;2023-03-21T04:51:34;6.50;15.60
27439;DHT22;14887;51.252;7.470;2023-03-21T04:54:00;6.50;14.50
27439;DHT22;14887;51.252;7.470;2023-03-21T04:56:27;6.50;9.70
27439;DHT22;14887;51.252;7.470;2023-03-21T04:59:12;6.50;18.80
27439;DHT22;14887;51.252;7.470;2023-03-21T05:01:38;6.50;27.80
27439;DHT22;14887;51.252;7.470;2023-03-21T05:04:06;6.50;12.50
27439;DHT22;14887;51.252;7.470;2023-03-21T05:06:31;6.50;10.90
27439;DHT22;14887;51.252;7.470;2023-03-21T05:08:58;6.60;11.00
27439;DHT22;14887;51.252;7.470;2023-03-21T05:11:25;6.60;5.70
27439;DHT22;14887;51.252;7.470;2023-03-21T05:13:51;6.60;1.00
27439;DHT22;14887;51.252;7.470;2023-03-21T05:16:17;6.60;1.00
27439;DHT22;14887;51.252;7.470;2023-03-21T05:18:42;6.60;1.00
27439;DHT22;14887;51.252;7.470;2023-03-21T05:21:08;6.60;1.00
27439;DHT22;14887;51.252;7.470;2023-03-21T05:23:37;6.60;1.00
27439;DHT22;14887;51.252;7.470;2023-03-21T05:26:07;6.60;1.00
27439;DHT22;14887;51.252;7.470;2023-03-21T05:28:33;6.60;1.00
27439;DHT22;14887;51.252;7.470;2023-03-21T05:31:01;6.60;1.00
27439;DHT22;14887;51.252;7.470;2023-03-21T05:33:27;6.70;1.00
27439;DHT22;14887;51.252;7.470;2023-03-21T05:35:53;6.70;1.00
27439;DHT22;14887;51.252;7.470;2023-03-21T05:38:18;6.70;1.00
27439;DHT22;14887;51.252;7.470;2023-03-21T05:40:46;6.70;1.00
27439;DHT22;14887;51.252;7.470;2023-03-21T05:43:12;6.80;1.00
27439;DHT22;14887;51.252;7.470;2023-03-21T05:45:37;6.80;1.00
27439;DHT22;14887;51.252;7.470;2023-03-21T05:48:03;6.80;1.00
27439;DHT22;14887;51.252;7.470;2023-03-21T05:50:28;6.80;1.00
27439;DHT22;14887;51.252;7.470;2023-03-21T05:52:54;6.80;1.00
27439;DHT22;14887;51.252;7.470;2023-03-21T05:55:19;6.80;1.00
27439;DHT22;14887;51.252;7.470;2023-03-21T05:57:45;6.90;1.00
27439;DHT22;14887;51.252;7.470;2023-03-21T06:00:12;6.90;1.00
27439;DHT22;14887;51.252;7.470;2023-03-21T06:02:37;6.90;1.00
27439;DHT22;14887;51.252;7.470;2023-03-21T06:05:04;6.90;1.00
27439;DHT22;14887;51.252;7.470;2023-03-21T06:07:31;7.00;1.00
27439;DHT22;14887;51.252;7.470;2023-03-21T06:09:56;7.00;1.00
27439;DHT22;14887;51.252;7.470;2023-03-21T06:12:22;7.00;1.00
27439;DHT22;14887;51.252;7.470;2023-03-21T06:14:47;7.00;1.00
27439;DHT22;14887;51.252;7.470;2023-03-21T06:17:13;7.10;1.00
27439;DHT22;14887;51.252;7.470;2023-03-21T06:19:39;7.10;1.00
27439;DHT22;14887;51.252;7.470;2023-03-21T06:22:04;7.10;1.00
27439;DHT22;14887;51.252;7.470;2023-03-21T06:24:30;7.10;1.00
27439;DHT22;14887;51.252;7.470;2023-03-21T06:26:56;7.20;1.00
27439;DHT22;14887;51.252;7.470;2023-03-21T06:29:21;7.20;1.00
27439;DHT22;14887;51.252;7.470;2023-03-21T06:31:47;7.20;1.00
27439;DHT22;14887;51.252;7.470;2023-03-21T06:34:12;7.20;16.50
27439;DHT22;14887;51.252;7.470;2023-03-21T06:36:38;7.20;23.20
27439;DHT22;14887;51.252;7.470;2023-03-21T06:39:04;7.20;36.90
27439;DHT22;14887;51.252;7.470;2023-03-21T06:41:31;7.30;37.20
27439;DHT22;14887;51.252;7.470;2023-03-21T06:43:57;7.10;46.10
27439;DHT22;14887;51.252;7.470;2023-03-21T06:46:22;7.10;63.00
27439;DHT22;14887;51.252;7.470;2023-03-21T06:48:48;7.10;71.90
27439;DHT22;14887;51.252;7.470;2023-03-21T06:51:14;7.00;76.70
27439;DHT22;14887;51.252;7.470;2023-03-21T06:53:40;7.00;75.80
27439;DHT22;14887;51.252;7.470;2023-03-21T06:56:07;7.00;90.60
27439;DHT22;14887;51.252;7.470;2023-03-21T06:58:33;7.00;77.70
27439;DHT22;14887;51.252;7.470;2023-03-21T07:01:00;6.90;80.00
27439;DHT22;14887;51.252;7.470;2023-03-21T07:03:27;6.90;80.10
27439;DHT22;14887;51.252;7.470;2023-03-21T07:05:53;6.80;75.80
27439;DHT22;14887;51.252;7.470;2023-03-21T07:08:19;6.80;71.30
27439;DHT22;14887;51.252;7.470;2023-03-21T07:10:45;6.80;67.10
27439;DHT22;14887;51.252;7.470;2023-03-21T07:13:11;6.70;64.70
27439;DHT22;14887;51.252;7.470;2023-03-21T07:15:37;6.70;73.30
27439;DHT22;14887;51.252;7.470;2023-03-21T07:18:04;6.70;79.90
27439;DHT22;14887;51.252;7.470;2023-03-21T07:20:30;6.70;88.70
27439;DHT22;14887;51.252;7.470;2023-03-21T07:22:56;6.70;93.40
27439;DHT22;14887;51.252;7.470;2023-03-21T07:25:21;6.70;98.60
27439;DHT22;14887;51.252;7.470;2023-03-21T07:27:47;6.70;99.90
27439;DHT22;14887;51.252;7.470;2023-03-21T07:30:13;6.80;99.90
27439;DHT22;14887;51.252;7.470;2023-03-21T07:32:39;6.80;99.90
27439;DHT22;14887;51.252;7.470;2023-03-21T07:35:11;6.70;99.90
27439;DHT22;14887;51.252;7.470;2023-03-21T07:37:37;6.80;99.90
27439;DHT22;14887;51.252;7.470;2023-03-21T07:40:03;6.80;99.90
27439;DHT22;14887;51.252;7.470;2023-03-21T07:42:35;6.80;99.90
27439;DHT22;14887;51.252;7.470;2023-03-21T07:45:02;6.90;99.90
27439;DHT22;14887;51.252;7.470;2023-03-21T07:47:29;6.90;99.90
27439;DHT22;14887;51.252;7.470;2023-03-21T07:49:55;7.00;99.90
27439;DHT22;14887;51.252;7.470;2023-03-21T07:52:20;7.10;99.90
27439;DHT22;14887;51.252;7.470;2023-03-21T07:54:46;7.20;99.90
27439;DHT22;14887;51.252;7.470;2023-03-21T07:57:11;7.20;99.90
27439;DHT22;14887;51.252;7.470;2023-03-21T07:59:37;7.40;99.90
27439;DHT22;14887;51.252;7.470;2023-03-21T08:02:02;7.40;99.90
27439;DHT22;14887;51.252;7.470;2023-03-21T08:04:28;7.50;99.90
27439;DHT22;14887;51.252;7.470;2023-03-21T08:06:53;7.50;99.90
27439;DHT22;14887;51.252;7.470;2023-03-21T08:09:19;7.50;99.90
27439;DHT22;14887;51.252;7.470;2023-03-21T08:11:45;7.50;99.90
27439;DHT22;14887;51.252;7.470;2023-03-21T08:14:10;7.50;99.90
27439;DHT22;14887;51.252;7.470;2023-03-21T08:16:36;7.50;99.90
27439;DHT22;14887;51.252;7.470;2023-03-21T08:19:01;7.60;99.90
27439;DHT22;14887;51.252;7.470;2023-03-21T08:21:27;7.70;99.90
27439;DHT22;14887;51.252;7.470;2023-03-21T08:23:52;7.70;99.90
27439;DHT22;14887;51.252;7.470;2023-03-21T08:26:19;7.60;99.90
27439;DHT22;14887;51.252;7.470;2023-03-21T08:28:45;7.60;99.90
27439;DHT22;14887;51.252;7.470;2023-03-21T08:31:12;7.60;99.90
27439;DHT22;14887;51.252;7.470;2023-03-21T08:33:38;7.50;99.90
27439;DHT22;14887;51.252;7.470;2023-03-21T08:36:04;7.60;99.90
27439;DHT22;14887;51.252;7.470;2023-03-21T08:38:30;7.60;99.90
27439;DHT22;14887;51.252;7.470;2023-03-21T08:40:58;7.60;99.90
27439;DHT22;14887;51.252;7.470;2023-03-21T08:43:25;7.60;99.90
27439;DHT22;14887;51.252;7.470;2023-03-21T08:45:51;7.60;99.90
27439;DHT22;14887;51.252;7.470;2023-03-21T08:48:17;7.50;99.90
27439;DHT22;14887;51.252;7.470;2023-03-21T08:50:43;7.60;99.90
27439;DHT22;14887;51.252;7.470;2023-03-21T08:53:08;7.50;99.90
27439;DHT22;14887;51.252;7.470;2023-03-21T08:55:34;7.60;99.90
27439;DHT22;14887;51.252;7.470;2023-03-21T08:58:00;7.60;99.90
27439;DHT22;14887;51.252;7.470;2023-03-21T09:00:26;7.60;99.90
27439;DHT22;14887;51.252;7.470;2023-03-21T09:02:52;7.60;99.90
27439;DHT22;14887;51.252;7.470;2023-03-21T09:05:19;7.60;99.90
27439;DHT22;14887;51.252;7.470;2023-03-21T09:07:45;7.60;99.90
27439;DHT22;14887;51.252;7.470;2023-03-21T09:10:17;7.60;99.90
27439;DHT22;14887;51.252;7.470;2023-03-21T09:12:43;7.50;99.90
27439;DHT22;14887;51.252;7.470;2023-03-21T09:15:10;7.60;99.90
27439;DHT22;14887;51.252;7.470;2023-03-21T09:17:38;7.70;99.90
27439;DHT22;14887;51.252;7.470;2023-03-21T09:20:12;7.70;99.90
27439;DHT22;14887;51.252;7.470;2023-03-21T09:22:49;7.70;99.90
27439;DHT22;14887;51.252;7.470;2023-03-21T09:25:17;7.60;99.90
27439;DHT22;14887;51.252;7.470;2023-03-21T09:27:44;7.70;99.90
27439;DHT22;14887;51.252;7.470;2023-03-21T09:30:11;7.70;99.90
27439;DHT22;14887;51.252;7.470;2023-03-21T09:32:37;7.60;99.90
27439;DHT22;14887;51.252;7.470;2023-03-21T09:35:04;7.70;99.90
27439;DHT22;14887;51.252;7.470;2023-03-21T09:37:31;7.70;99.90
27439;DHT22;14887;51.252;7.470;2023-03-21T09:39:58;7.70;99.90
27439;DHT22;14887;51.252;7.470;2023-03-21T09:42:50;7.70;99.90
27439;DHT22;14887;51.252;7.470;2023-03-21T09:45:35;7.70;99.90
27439;DHT22;14887;51.252;7.470;2023-03-21T09:48:03;7.70;99.90
27439;DHT22;14887;51.252;7.470;2023-03-21T09:50:37;7.70;99.90
27439;DHT22;14887;51.252;7.470;2023-03-21T09:53:08;7.60;99.90
27439;DHT22;14887;51.252;7.470;2023-03-21T09:55:38;7.60;99.90
27439;DHT22;14887;51.252;7.470;2023-03-21T09:58:26;7.70;99.90
27439;DHT22;14887;51.252;7.470;2023-03-21T10:01:02;7.80;99.90
27439;DHT22;14887;51.252;7.470;2023-03-21T10:03:35;7.80;99.90
27439;DHT22;14887;51.252;7.470;2023-03-21T10:06:05;7.70;99.90
27439;DHT22;14887;51.252;7.470;2023-03-21T10:08:38;7.60;99.90
27439;DHT22;14887;51.252;7.470;2023-03-21T10:11:24;7.70;99.90
27439;DHT22;14887;51.252;7.470;2023-03-21T10:13:55;7.80;99.90
27439;DHT22;14887;51.252;7.470;2023-03-21T10:16:30;7.80;99.90
27439;DHT22;14887;51.252;7.470;2023-03-21T10:18:59;7.90;99.90
27439;DHT22;14887;51.252;7.470;2023-03-21T10:21:27;7.90;99.90
27439;DHT22;14887;51.252;7.470;2023-03-21T10:23:55;8.00;99.90
27439;DHT22;14887;51.252;7.470;2023-03-21T10:26:24;8.20;99.90
27439;DHT22;14887;51.252;7.470;2023-03-21T10:28:53;8.20;99.90
27439;DHT22;14887;51.252;7.470;2023-03-21T10:31:22;8.30;99.90
27439;DHT22;14887;51.252;7.470;2023-03-21T10:33:52;8.30;99.90
27439;DHT22;14887;51.252;7.470;2023-03-21T10:36:26;8.30;99.90
27439;DHT22;14887;51.252;7.470;2023-03-21T10:39:00;8.50;99.90
27439;DHT22;14887;51.252;7.470;2023-03-21T10:41:26;8.50;99.90
27439;DHT22;14887;51.252;7.470;2023-03-21T10:44:11;8.60;99.90
27439;DHT22;14887;51.252;7.470;2023-03-21T10:46:52;8.70;99.90
27439;DHT22;14887;51.252;7.470;2023-03-21T10:49:18;8.70;99.90
27439;DHT22;14887;51.252;7.470;2023-03-21T10:51:47;8.80;99.90
27439;DHT22;14887;51.252;7.470;2023-03-21T10:54:18;8.90;99.90
27439;DHT22;14887;51.252;7.470;2023-03-21T10:56:52;9.00;99.90
27439;DHT22;14887;51.252;7.470;2023-03-21T11:05:26;9.10;99.90
27439;DHT22;14887;51.252;7.470;2023-03-21T11:10:36;9.30;99.90
27439;DHT22;14887;51.252;7.470;2023-03-21T11:13:12;9.40;99.90
27439;DHT22;14887;51.252;7.470;2023-03-21T11:20:47;9.50;99.90
27439;DHT22;14887;51.252;7.470;2023-03-21T11:23:14;9.50;99.90
27439;DHT22;14887;51.252;7.470;2023-03-21T11:25:41;9.50;99.90
27439;DHT22;14887;51.252;7.470;2023-03-21T11:28:15;9.60;99.90
27439;DHT22;14887;51.252;7.470;2023-03-21T11:31:07;9.60;99.90
27439;DHT22;14887;51.252;7.470;2023-03-21T11:33:39;9.60;99.90
27439;DHT22;14887;51.252;7.470;2023-03-21T11:38:56;9.80;99.90
27439;DHT22;14887;51.252;7.470;2023-03-21T11:41:24;9.90;70.70
27439;DHT22;14887;51.252;7.470;2023-03-21T11:43:53;9.90;32.50
27439;DHT22;14887;51.252;7.470;2023-03-21T11:46:23;9.80;55.90
27439;DHT22;14887;51.252;7.470;2023-03-21T11:48:49;9.80;54.90
27439;DHT22;14887;51.252;7.470;2023-03-21T11:54:21;9.70;34.20
27439;DHT22;14887;51.252;7.470;2023-03-21T11:56:58;9.50;29.80
27439;DHT22;14887;51.252;7.470;2023-03-21T11:59:42;9.50;56.30
27439;DHT22;14887;51.252;7.470;2023-03-21T12:05:26;9.50;73.00
27439;DHT22;14887;51.252;7.470;2023-03-21T12:08:12;9.70;45.70
27439;DHT22;14887;51.252;7.470;2023-03-21T12:11:16;10.00;32.60
27439;DHT22;14887;51.252;7.470;2023-03-21T12:17:04;10.30;1.00
27439;DHT22;14887;51.252;7.470;2023-03-21T12:19:45;10.20;1.00
27439;DHT22;14887;51.252;7.470;2023-03-21T12:23:26;10.20;1.00
27439;DHT22;14887;51.252;7.470;2023-03-21T12:28:15;10.00;1.00
27439;DHT22;14887;51.252;7.470;2023-03-21T12:30:56;9.90;1.00
27439;DHT22;14887;51.252;7.470;2023-03-21T12:46:38;9.50;1.00
27439;DHT22;14887;51.252;7.470;2023-03-21T12:52:10;9.40;1.00
27439;DHT22;14887;51.252;7.470;2023-03-21T12:54:46;9.30;1.00
27439;DHT22;14887;51.252;7.470;2023-03-21T12:57:48;9.20;1.00
27439;DHT22;14887;51.252;7.470;2023-03-21T13:00:22;9.10;1.00
27439;DHT22;14887;51.252;7.470;2023-03-21T13:06:02;8.80;46.20
27439;DHT22;14887;51.252;7.470;2023-03-21T13:11:07;8.50;58.80
27439;DHT22;14887;51.252;7.470;2023-03-21T13:13:53;8.40;92.80
27439;DHT22;14887;51.252;7.470;2023-03-21T13:19:00;8.30;99.90
27439;DHT22;14887;51.252;7.470;2023-03-21T13:24:37;8.40;99.90
27439;DHT22;14887;51.252;7.470;2023-03-21T13:27:14;8.40;99.90
27439;DHT22;14887;51.252;7.470;2023-03-21T13:29:52;8.40;99.90
27439;DHT22;14887;51.252;7.470;2023-03-21T13:35:01;8.50;99.90
27439;DHT22;14887;51.252;7.470;2023-03-21T13:37:32;8.50;99.90
27439;DHT22;14887;51.252;7.470;2023-03-21T13:40:06;8.50;99.90
27439;DHT22;14887;51.252;7.470;2023-03-21T13:42:44;8.50;99.90
27439;DHT22;14887;51.252;7.470;2023-03-21T13:45:33;8.50;99.90
27439;DHT22;14887;51.252;7.470;2023-03-21T13:48:30;8.60;99.90
27439;DHT22;14887;51.252;7.470;2023-03-21T13:51:01;8.70;99.90
27439;DHT22;14887;51.252;7.470;2023-03-21T13:58:51;8.80;92.10
27439;DHT22;14887;51.252;7.470;2023-03-21T14:01:34;8.70;87.60
27439;DHT22;14887;51.252;7.470;2023-03-21T14:04:10;8.70;95.40
27439;DHT22;14887;51.252;7.470;2023-03-21T14:11:49;8.70;95.40
27439;DHT22;14887;51.252;7.470;2023-03-21T14:14:37;8.70;99.60
27439;DHT22;14887;51.252;7.470;2023-03-21T14:17:21;8.70;99.60
27439;DHT22;14887;51.252;7.470;2023-03-21T14:22:53;8.50;91.20
27439;DHT22;14887;51.252;7.470;2023-03-21T14:25:50;8.50;92.70
27439;DHT22;14887;51.252;7.470;2023-03-21T14:28:35;8.70;87.10
27439;DHT22;14887;51.252;7.470;2023-03-21T14:31:30;8.70;71.30
27439;DHT22;14887;51.252;7.470;2023-03-21T14:34:16;8.70;45.00
27439;DHT22;14887;51.252;7.470;2023-03-21T14:37:01;8.70;56.60
27439;DHT22;14887;51.252;7.470;2023-03-21T14:39:32;8.80;45.30
27439;DHT22;14887;51.252;7.470;2023-03-21T14:42:11;8.90;46.90
27439;DHT22;14887;51.252;7.470;2023-03-21T14:44:39;8.90;41.30
27439;DHT22;14887;51.252;7.470;2023-03-21T14:47:16;9.00;33.10
27439;DHT22;14887;51.252;7.470;2023-03-21T14:49:42;9.10;33.60
27439;DHT22;14887;51.252;7.470;2023-03-21T14:52:21;9.20;25.70
27439;DHT22;14887;51.252;7.470;2023-03-21T14:54:47;9.20;6.80
27439;DHT22;14887;51.252;7.470;2023-03-21T14:57:20;9.10;1.00
27439;DHT22;14887;51.252;7.470;2023-03-21T14:59:49;9.20;7.00
27439;DHT22;14887;51.252;7.470;2023-03-21T15:02:22;9.20;7.50
27439;DHT22;14887;51.252;7.470;2023-03-21T15:04:53;9.20;1.00
27439;DHT22;14887;51.252;7.470;2023-03-21T15:07:29;9.20;1.00
27439;DHT22;14887;51.252;7.470;2023-03-21T15:10:02;9.30;1.00
27439;DHT22;14887;51.252;7.470;2023-03-21T15:12:29;9.40;1.00
27439;DHT22;14887;51.252;7.470;2023-03-21T15:14:55;9.50;1.00
27439;DHT22;14887;51.252;7.470;2023-03-21T15:17:23;9.60;1.00
27439;DHT22;14887;51.252;7.470;2023-03-21T15:19:49;9.60;1.00
27439;DHT22;14887;51.252;7.470;2023-03-21T15:22:34;9.60;1.00
27439;DHT22;14887;51.252;7.470;2023-03-21T15:25:03;9.40;1.00
27439;DHT22;14887;51.252;7.470;2023-03-21T15:27:57;9.40;1.00
27439;DHT22;14887;51.252;7.470;2023-03-21T15:31:17;9.60;1.00
27439;DHT22;14887;51.252;7.470;2023-03-21T15:34:32;9.70;1.00
27439;DHT22;14887;51.252;7.470;2023-03-21T15:37:05;9.80;1.00
27439;DHT22;14887;51.252;7.470;2023-03-21T15:39:31;9.90;1.00
27439;DHT22;14887;51.252;7.470;2023-03-21T15:42:04;10.00;1.00
27439;DHT22;14887;51.252;7.470;2023-03-21T15:44:33;10.10;1.00
27439;DHT22;14887;51.252;7.470;2023-03-21T15:46:59;10.60;1.00
27439;DHT22;14887;51.252;7.470;2023-03-21T15:49:31;10.90;1.00
27439;DHT22;14887;51.252;7.470;2023-03-21T15:54:28;11.00;1.00
27439;DHT22;14887;51.252;7.470;2023-03-21T15:56:58;11.20;1.00
27439;DHT22;14887;51.252;7.470;2023-03-21T15:59:39;11.50;1.00
27439;DHT22;14887;51.252;7.470;2023-03-21T16:02:18;11.60;99.90
27439;DHT22;14887;51.252;7.470;2023-03-21T16:05:22;11.40;1.00
27439;DHT22;14887;51.252;7.470;2023-03-21T16:07:48;11.20;1.00
27439;DHT22;14887;51.252;7.470;2023-03-21T16:10:26;11.20;1.00
27439;DHT22;14887;51.252;7.470;2023-03-21T16:12:53;11.70;1.00
27439;DHT22;14887;51.252;7.470;2023-03-21T16:15:18;12.60;99.90
27439;DHT22;14887;51.252;7.470;2023-03-21T16:18:00;13.30;16.60
27439;DHT22;14887;51.252;7.470;2023-03-21T16:20:37;13.60;99.90
27439;DHT22;14887;51.252;7.470;2023-03-21T16:23:04;13.80;1.00
27439;DHT22;14887;51.252;7.470;2023-03-21T16:25:31;13.90;99.90
27439;DHT22;14887;51.252;7.470;2023-03-21T16:27:58;13.70;1.00
27439;DHT22;14887;51.252;7.470;2023-03-21T16:30:24;13.60;99.90
27439;DHT22;14887;51.252;7.470;2023-03-21T16:32:50;13.30;83.10
27439;DHT22;14887;51.252;7.470;2023-03-21T16:35:16;13.20;1.60
27439;DHT22;14887;51.252;7.470;2023-03-21T16:37:42;13.00;1.00
27439;DHT22;14887;51.252;7.470;2023-03-21T16:43:32;13.10;1.00
27439;DHT22;14887;51.252;7.470;2023-03-21T16:45:57;12.90;99.90
27439;DHT22;14887;51.252;7.470;2023-03-21T16:48:23;12.90;99.90
27439;DHT22;14887;51.252;7.470;2023-03-21T16:50:48;12.90;99.90
27439;DHT22;14887;51.252;7.470;2023-03-21T16:53:14;12.50;1.00
27439;DHT22;14887;51.252;7.470;2023-03-21T16:55:41;12.20;43.10
27439;DHT22;14887;51.252;7.470;2023-03-21T16:58:07;11.60;99.90
27439;DHT22;14887;51.252;7.470;2023-03-21T17:00:32;11.40;1.00
27439;DHT22;14887;51.252;7.470;2023-03-21T17:03:00;11.50;1.00
27439;DHT22;14887;51.252;7.470;2023-03-21T17:05:27;11.70;99.90
27439;DHT22;14887;51.252;7.470;2023-03-21T17:07:55;11.60;1.00
27439;DHT22;14887;51.252;7.470;2023-03-21T17:10:26;11.60;1.00
27439;DHT22;14887;51.252;7.470;2023-03-21T17:12:52;11.60;1.00
27439;DHT22;14887;51.252;7.470;2023-03-21T17:15:19;11.40;1.00
27439;DHT22;14887;51.252;7.470;2023-03-21T17:17:45;10.70;1.00
27439;DHT22;14887;51.252;7.470;2023-03-21T17:20:18;10.20;1.00
27439;DHT22;14887;51.252;7.470;2023-03-21T17:22:44;9.80;29.70
27439;DHT22;14887;51.252;7.470;2023-03-21T17:25:10;9.40;85.70
27439;DHT22;14887;51.252;7.470;2023-03-21T17:27:36;9.20;99.90
27439;DHT22;14887;51.252;7.470;2023-03-21T17:30:05;9.00;99.90
27439;DHT22;14887;51.252;7.470;2023-03-21T17:32:34;8.80;99.90
27439;DHT22;14887;51.252;7.470;2023-03-21T17:35:02;8.80;99.90
27439;DHT22;14887;51.252;7.470;2023-03-21T17:37:28;8.70;99.90
27439;DHT22;14887;51.252;7.470;2023-03-21T17:39:54;8.70;99.90
27439;DHT22;14887;51.252;7.470;2023-03-21T17:42:19;8.60;99.90
27439;DHT22;14887;51.252;7.470;2023-03-21T17:44:45;8.70;99.90
27439;DHT22;14887;51.252;7.470;2023-03-21T17:47:11;8.70;99.90
27439;DHT22;14887;51.252;7.470;2023-03-21T17:49:36;8.70;99.90
27439;DHT22;14887;51.252;7.470;2023-03-21T17:52:02;8.80;99.90
27439;DHT22;14887;51.252;7.470;2023-03-21T17:54:28;8.70;99.90